sensor_id;sensor_type;location;lat;lon;timestamp;P1;durP1;ratioP1;P2;durP2;ratioP2
61250;SDS011;47126;47.508;8.590;2023-04-10T00:01:37;16.67;;;7.97;;
61250;SDS011;47126;47.508;8.590;2023-04-10T00:04:03;18.67;;;8.27;;
61250;SDS011;47126;47.508;8.590;2023-04-10T00:06:30;18.20;;;8.88;;
61250;SDS011;47126;47.508;8.590;2023-04-10T00:08:57;16.90;;;8.35;;
61250;SDS011;47126;47.508;8.590;2023-04-10T00:11:23;16.40;;;8.25;;
61250;SDS011;47126;47.508;8.590;2023-04-10T00:13:49;16.08;;;7.93;;
61250;SDS011;47126;47.508;8.590;2023-04-10T00:16:15;16.52;;;7.90;;
61250;SDS011;47126;47.508;8.590;2023-04-10T00:18:41;16.83;;;8.48;;
61250;SDS011;47126;47.508;8.590;2023-04-10T00:21:07;17.13;;;8.07;;
61250;SDS011;47126;47.508;8.590;2023-04-10T00:23:33;16.70;;;8.48;;
61250;SDS011;47126;47.508;8.590;2023-04-10T00:26:00;17.58;;;8.18;;
61250;SDS011;47126;47.508;8.590;2023-04-10T00:28:26;18.42;;;8.25;;
61250;SDS011;47126;47.508;8.590;2023-04-10T00:30:52;19.38;;;8.70;;
61250;SDS011;47126;47.508;8.590;2023-04-10T00:33:18;18.95;;;8.43;;
61250;SDS011;47126;47.508;8.590;2023-04-10T00:35:44;15.20;;;8.20;;
61250;SDS011;47126;47.508;8.590;2023-04-10T00:38:10;15.77;;;7.30;;
61250;SDS011;47126;47.508;8.590;2023-04-10T00:40:37;17.77;;;8.10;;
61250;SDS011;47126;47.508;8.590;2023-04-10T00:43:03;17.63;;;8.52;;
61250;SDS011;47126;47.508;8.590;2023-04-10T00:45:29;17.00;;;8.32;;
61250;SDS011;47126;47.508;8.590;2023-04-10T00:47:55;14.93;;;7.68;;
61250;SDS011;47126;47.508;8.590;2023-04-10T00:50:21;17.30;;;8.25;;
61250;SDS011;47126;47.508;8.590;2023-04-10T00:52:48;16.88;;;8.07;;
61250;SDS011;47126;47.508;8.590;2023-04-10T00:55:15;16.40;;;8.93;;
61250;SDS011;47126;47.508;8.590;2023-04-10T00:57:45;16.88;;;8.68;;
61250;SDS011;47126;47.508;8.590;2023-04-10T01:00:14;18.90;;;8.98;;
61250;SDS011;47126;47.508;8.590;2023-04-10T01:02:41;16.80;;;8.82;;
61250;SDS011;47126;47.508;8.590;2023-04-10T01:05:08;21.73;;;8.98;;
61250;SDS011;47126;47.508;8.590;2023-04-10T01:10:05;15.40;;;7.68;;
61250;SDS011;47126;47.508;8.590;2023-04-10T01:15:05;16.00;;;7.95;;
61250;SDS011;47126;47.508;8.590;2023-04-10T01:17:49;16.23;;;8.35;;
61250;SDS011;47126;47.508;8.590;2023-04-10T01:20:19;18.33;;;8.23;;
61250;SDS011;47126;47.508;8.590;2023-04-10T01:25:42;15.82;;;7.72;;
61250;SDS011;47126;47.508;8.590;2023-04-10T01:28:20;16.85;;;8.07;;
61250;SDS011;47126;47.508;8.590;2023-04-10T01:30:46;14.27;;;7.43;;
61250;SDS011;47126;47.508;8.590;2023-04-10T01:33:15;17.38;;;8.55;;
61250;SDS011;47126;47.508;8.590;2023-04-10T01:35:43;17.60;;;8.77;;
61250;SDS011;47126;47.508;8.590;2023-04-10T01:38:12;18.63;;;8.65;;
61250;SDS011;47126;47.508;8.590;2023-04-10T01:40:40;19.25;;;8.98;;
61250;SDS011;47126;47.508;8.590;2023-04-10T01:43:12;20.65;;;8.45;;
61250;SDS011;47126;47.508;8.590;2023-04-10T01:45:39;19.33;;;8.85;;
61250;SDS011;47126;47.508;8.590;2023-04-10T01:48:06;19.55;;;8.48;;
61250;SDS011;47126;47.508;8.590;2023-04-10T01:50:32;16.38;;;7.53;;
61250;SDS011;47126;47.508;8.590;2023-04-10T01:52:58;18.33;;;8.93;;
61250;SDS011;47126;47.508;8.590;2023-04-10T01:55:25;16.80;;;8.30;;
61250;SDS011;47126;47.508;8.590;2023-04-10T01:57:52;18.85;;;8.77;;
61250;SDS011;47126;47.508;8.590;2023-04-10T02:00:19;17.05;;;9.15;;
61250;SDS011;47126;47.508;8.590;2023-04-10T02:02:46;20.33;;;9.43;;
61250;SDS011;47126;47.508;8.590;2023-04-10T02:05:12;18.17;;;8.48;;
61250;SDS011;47126;47.508;8.590;2023-04-10T02:07:43;18.15;;;8.20;;
61250;SDS011;47126;47.508;8.590;2023-04-10T02:10:24;16.95;;;8.52;;
61250;SDS011;47126;47.508;8.590;2023-04-10T02:12:52;18.88;;;8.65;;
61250;SDS011;47126;47.508;8.590;2023-04-10T02:15:21;17.10;;;8.07;;
61250;SDS011;47126;47.508;8.590;2023-04-10T02:17:47;20.45;;;8.73;;
61250;SDS011;47126;47.508;8.590;2023-04-10T02:20:14;16.88;;;8.40;;
61250;SDS011;47126;47.508;8.590;2023-04-10T02:22:42;16.42;;;7.93;;
61250;SDS011;47126;47.508;8.590;2023-04-10T02:25:09;16.90;;;8.25;;
61250;SDS011;47126;47.508;8.590;2023-04-10T02:27:35;16.60;;;7.82;;
61250;SDS011;47126;47.508;8.590;2023-04-10T02:30:02;17.83;;;8.68;;
61250;SDS011;47126;47.508;8.590;2023-04-10T02:32:28;18.33;;;8.50;;
61250;SDS011;47126;47.508;8.590;2023-04-10T02:34:55;19.67;;;7.68;;
61250;SDS011;47126;47.508;8.590;2023-04-10T02:37:21;18.10;;;7.88;;
61250;SDS011;47126;47.508;8.590;2023-04-10T02:39:48;19.35;;;8.82;;
61250;SDS011;47126;47.508;8.590;2023-04-10T02:42:14;17.10;;;8.02;;
61250;SDS011;47126;47.508;8.590;2023-04-10T02:44:40;16.38;;;8.15;;
61250;SDS011;47126;47.508;8.590;2023-04-10T02:47:06;17.77;;;8.55;;
61250;SDS011;47126;47.508;8.590;2023-04-10T02:49:32;17.23;;;8.13;;
61250;SDS011;47126;47.508;8.590;2023-04-10T02:51:59;18.73;;;8.25;;
61250;SDS011;47126;47.508;8.590;2023-04-10T02:54:25;19.02;;;8.32;;
61250;SDS011;47126;47.508;8.590;2023-04-10T02:56:51;20.92;;;9.18;;
61250;SDS011;47126;47.508;8.590;2023-04-10T02:59:17;21.77;;;9.82;;
61250;SDS011;47126;47.508;8.590;2023-04-10T03:01:44;19.67;;;8.75;;
61250;SDS011;47126;47.508;8.590;2023-04-10T03:04:11;19.25;;;8.48;;
61250;SDS011;47126;47.508;8.590;2023-04-10T03:06:37;21.02;;;8.95;;
61250;SDS011;47126;47.508;8.590;2023-04-10T03:09:03;19.27;;;8.35;;
61250;SDS011;47126;47.508;8.590;2023-04-10T03:11:29;21.40;;;9.52;;
61250;SDS011;47126;47.508;8.590;2023-04-10T03:13:55;20.95;;;9.48;;
61250;SDS011;47126;47.508;8.590;2023-04-10T03:16:24;21.60;;;8.23;;
61250;SDS011;47126;47.508;8.590;2023-04-10T03:18:51;17.75;;;8.95;;
61250;SDS011;47126;47.508;8.590;2023-04-10T03:21:17;18.65;;;8.95;;
61250;SDS011;47126;47.508;8.590;2023-04-10T03:23:43;19.73;;;8.57;;
61250;SDS011;47126;47.508;8.590;2023-04-10T03:26:10;21.63;;;9.48;;
61250;SDS011;47126;47.508;8.590;2023-04-10T03:28:36;19.85;;;9.57;;
61250;SDS011;47126;47.508;8.590;2023-04-10T03:31:04;18.40;;;9.70;;
61250;SDS011;47126;47.508;8.590;2023-04-10T03:33:30;19.83;;;8.77;;
61250;SDS011;47126;47.508;8.590;2023-04-10T03:35:56;20.95;;;8.68;;
61250;SDS011;47126;47.508;8.590;2023-04-10T03:38:22;18.67;;;8.60;;
61250;SDS011;47126;47.508;8.590;2023-04-10T03:40:48;20.33;;;9.52;;
61250;SDS011;47126;47.508;8.590;2023-04-10T03:43:14;22.25;;;9.30;;
61250;SDS011;47126;47.508;8.590;2023-04-10T03:45:40;20.92;;;9.60;;
61250;SDS011;47126;47.508;8.590;2023-04-10T03:48:06;23.23;;;9.75;;
61250;SDS011;47126;47.508;8.590;2023-04-10T03:50:32;21.33;;;11.18;;
61250;SDS011;47126;47.508;8.590;2023-04-10T03:52:59;21.98;;;9.65;;
61250;SDS011;47126;47.508;8.590;2023-04-10T03:55:25;19.80;;;9.20;;
61250;SDS011;47126;47.508;8.590;2023-04-10T03:57:51;20.42;;;9.40;;
61250;SDS011;47126;47.508;8.590;2023-04-10T04:00:18;20.70;;;9.38;;
61250;SDS011;47126;47.508;8.590;2023-04-10T04:02:45;21.65;;;10.20;;
61250;SDS011;47126;47.508;8.590;2023-04-10T04:05:11;25.77;;;10.73;;
61250;SDS011;47126;47.508;8.590;2023-04-10T04:07:37;20.80;;;9.90;;
61250;SDS011;47126;47.508;8.590;2023-04-10T04:10:03;23.30;;;10.27;;
61250;SDS011;47126;47.508;8.590;2023-04-10T04:12:29;22.42;;;10.20;;
61250;SDS011;47126;47.508;8.590;2023-04-10T04:14:55;19.92;;;8.93;;
61250;SDS011;47126;47.508;8.590;2023-04-10T04:17:21;22.50;;;9.82;;
61250;SDS011;47126;47.508;8.590;2023-04-10T04:19:47;20.13;;;9.68;;
61250;SDS011;47126;47.508;8.590;2023-04-10T04:22:13;23.25;;;9.68;;
61250;SDS011;47126;47.508;8.590;2023-04-10T04:24:40;19.17;;;9.35;;
61250;SDS011;47126;47.508;8.590;2023-04-10T04:27:06;19.55;;;9.25;;
61250;SDS011;47126;47.508;8.590;2023-04-10T04:29:32;23.45;;;10.35;;
61250;SDS011;47126;47.508;8.590;2023-04-10T04:31:58;22.15;;;9.32;;
61250;SDS011;47126;47.508;8.590;2023-04-10T04:34:24;22.05;;;10.02;;
61250;SDS011;47126;47.508;8.590;2023-04-10T04:36:50;22.13;;;10.77;;
61250;SDS011;47126;47.508;8.590;2023-04-10T04:39:16;24.83;;;9.43;;
61250;SDS011;47126;47.508;8.590;2023-04-10T04:41:42;26.90;;;9.63;;
61250;SDS011;47126;47.508;8.590;2023-04-10T04:44:08;22.77;;;10.10;;
61250;SDS011;47126;47.508;8.590;2023-04-10T04:46:34;22.60;;;10.57;;
61250;SDS011;47126;47.508;8.590;2023-04-10T04:49:00;20.48;;;8.88;;
61250;SDS011;47126;47.508;8.590;2023-04-10T04:51:26;21.50;;;9.82;;
61250;SDS011;47126;47.508;8.590;2023-04-10T04:53:52;18.85;;;10.25;;
61250;SDS011;47126;47.508;8.590;2023-04-10T04:56:18;20.55;;;9.48;;
61250;SDS011;47126;47.508;8.590;2023-04-10T04:58:44;21.98;;;10.38;;
61250;SDS011;47126;47.508;8.590;2023-04-10T05:01:10;23.17;;;11.15;;
61250;SDS011;47126;47.508;8.590;2023-04-10T05:03:36;23.38;;;10.65;;
61250;SDS011;47126;47.508;8.590;2023-04-10T05:06:03;21.52;;;10.30;;
61250;SDS011;47126;47.508;8.590;2023-04-10T05:08:29;23.27;;;10.52;;
61250;SDS011;47126;47.508;8.590;2023-04-10T05:10:55;26.35;;;12.27;;
61250;SDS011;47126;47.508;8.590;2023-04-10T05:13:21;26.17;;;10.93;;
61250;SDS011;47126;47.508;8.590;2023-04-10T05:15:47;26.80;;;11.93;;
61250;SDS011;47126;47.508;8.590;2023-04-10T05:18:13;27.83;;;12.10;;
61250;SDS011;47126;47.508;8.590;2023-04-10T05:20:43;23.55;;;11.70;;
61250;SDS011;47126;47.508;8.590;2023-04-10T05:23:09;25.17;;;10.95;;
61250;SDS011;47126;47.508;8.590;2023-04-10T05:25:35;22.23;;;10.40;;
61250;SDS011;47126;47.508;8.590;2023-04-10T05:28:01;22.85;;;10.45;;
61250;SDS011;47126;47.508;8.590;2023-04-10T05:30:27;24.30;;;10.93;;
61250;SDS011;47126;47.508;8.590;2023-04-10T05:32:53;24.45;;;11.40;;
61250;SDS011;47126;47.508;8.590;2023-04-10T05:35:20;22.88;;;11.18;;
61250;SDS011;47126;47.508;8.590;2023-04-10T05:37:46;22.83;;;11.27;;
61250;SDS011;47126;47.508;8.590;2023-04-10T05:40:12;21.63;;;9.88;;
61250;SDS011;47126;47.508;8.590;2023-04-10T05:42:38;24.77;;;10.85;;
61250;SDS011;47126;47.508;8.590;2023-04-10T05:45:04;22.38;;;11.48;;
61250;SDS011;47126;47.508;8.590;2023-04-10T05:47:30;22.42;;;11.18;;
61250;SDS011;47126;47.508;8.590;2023-04-10T05:49:56;21.45;;;10.73;;
61250;SDS011;47126;47.508;8.590;2023-04-10T05:52:22;22.55;;;11.25;;
61250;SDS011;47126;47.508;8.590;2023-04-10T05:54:48;24.42;;;10.27;;
61250;SDS011;47126;47.508;8.590;2023-04-10T05:57:16;20.63;;;10.00;;
61250;SDS011;47126;47.508;8.590;2023-04-10T05:59:43;17.98;;;9.05;;
61250;SDS011;47126;47.508;8.590;2023-04-10T06:02:09;17.95;;;9.32;;
61250;SDS011;47126;47.508;8.590;2023-04-10T06:04:35;22.00;;;10.35;;
61250;SDS011;47126;47.508;8.590;2023-04-10T06:07:01;18.33;;;10.00;;
61250;SDS011;47126;47.508;8.590;2023-04-10T06:09:27;18.42;;;9.68;;
61250;SDS011;47126;47.508;8.590;2023-04-10T06:11:53;18.08;;;9.73;;
61250;SDS011;47126;47.508;8.590;2023-04-10T06:14:21;19.55;;;9.02;;
61250;SDS011;47126;47.508;8.590;2023-04-10T06:16:47;20.02;;;9.73;;
61250;SDS011;47126;47.508;8.590;2023-04-10T06:19:13;17.98;;;9.60;;
61250;SDS011;47126;47.508;8.590;2023-04-10T06:21:40;18.38;;;9.55;;
61250;SDS011;47126;47.508;8.590;2023-04-10T06:24:06;20.02;;;9.80;;
61250;SDS011;47126;47.508;8.590;2023-04-10T06:26:32;18.25;;;10.07;;
61250;SDS011;47126;47.508;8.590;2023-04-10T06:28:58;19.55;;;9.82;;
61250;SDS011;47126;47.508;8.590;2023-04-10T06:31:24;21.30;;;9.68;;
61250;SDS011;47126;47.508;8.590;2023-04-10T06:33:51;16.05;;;9.07;;
61250;SDS011;47126;47.508;8.590;2023-04-10T06:36:17;17.48;;;8.70;;
61250;SDS011;47126;47.508;8.590;2023-04-10T06:38:43;17.25;;;9.40;;
61250;SDS011;47126;47.508;8.590;2023-04-10T06:41:08;15.90;;;8.23;;
61250;SDS011;47126;47.508;8.590;2023-04-10T06:43:38;17.40;;;9.00;;
61250;SDS011;47126;47.508;8.590;2023-04-10T06:46:04;19.92;;;9.75;;
61250;SDS011;47126;47.508;8.590;2023-04-10T06:48:30;17.25;;;9.10;;
61250;SDS011;47126;47.508;8.590;2023-04-10T06:50:56;17.48;;;8.95;;
61250;SDS011;47126;47.508;8.590;2023-04-10T06:53:24;16.70;;;8.98;;
61250;SDS011;47126;47.508;8.590;2023-04-10T06:55:51;22.25;;;8.95;;
61250;SDS011;47126;47.508;8.590;2023-04-10T06:58:17;17.08;;;8.80;;
61250;SDS011;47126;47.508;8.590;2023-04-10T07:00:43;16.30;;;8.55;;
61250;SDS011;47126;47.508;8.590;2023-04-10T07:03:09;18.30;;;8.82;;
61250;SDS011;47126;47.508;8.590;2023-04-10T07:05:35;19.60;;;9.88;;
61250;SDS011;47126;47.508;8.590;2023-04-10T07:08:01;18.35;;;9.27;;
61250;SDS011;47126;47.508;8.590;2023-04-10T07:10:27;18.48;;;9.20;;
61250;SDS011;47126;47.508;8.590;2023-04-10T07:12:53;15.82;;;9.15;;
61250;SDS011;47126;47.508;8.590;2023-04-10T07:15:21;17.27;;;9.43;;
61250;SDS011;47126;47.508;8.590;2023-04-10T07:17:47;24.33;;;8.73;;
61250;SDS011;47126;47.508;8.590;2023-04-10T07:20:13;26.05;;;9.27;;
61250;SDS011;47126;47.508;8.590;2023-04-10T07:22:45;17.13;;;9.10;;
61250;SDS011;47126;47.508;8.590;2023-04-10T07:25:11;17.45;;;9.85;;
61250;SDS011;47126;47.508;8.590;2023-04-10T07:27:38;16.10;;;8.57;;
61250;SDS011;47126;47.508;8.590;2023-04-10T07:30:04;17.85;;;8.93;;
61250;SDS011;47126;47.508;8.590;2023-04-10T07:32:30;15.43;;;8.48;;
61250;SDS011;47126;47.508;8.590;2023-04-10T07:34:58;15.23;;;8.38;;
61250;SDS011;47126;47.508;8.590;2023-04-10T07:37:24;16.35;;;8.40;;
61250;SDS011;47126;47.508;8.590;2023-04-10T07:39:50;14.70;;;7.40;;
61250;SDS011;47126;47.508;8.590;2023-04-10T07:42:16;13.55;;;7.32;;
61250;SDS011;47126;47.508;8.590;2023-04-10T07:44:42;12.73;;;7.30;;
61250;SDS011;47126;47.508;8.590;2023-04-10T07:47:08;14.88;;;7.78;;
61250;SDS011;47126;47.508;8.590;2023-04-10T07:49:34;14.05;;;7.35;;
61250;SDS011;47126;47.508;8.590;2023-04-10T07:52:00;13.32;;;7.57;;
61250;SDS011;47126;47.508;8.590;2023-04-10T07:54:26;13.95;;;7.60;;
61250;SDS011;47126;47.508;8.590;2023-04-10T07:56:52;11.35;;;6.15;;
61250;SDS011;47126;47.508;8.590;2023-04-10T07:59:18;13.00;;;6.78;;
61250;SDS011;47126;47.508;8.590;2023-04-10T08:01:44;10.40;;;6.18;;
61250;SDS011;47126;47.508;8.590;2023-04-10T08:04:10;12.15;;;6.35;;
61250;SDS011;47126;47.508;8.590;2023-04-10T08:06:36;12.82;;;6.38;;
61250;SDS011;47126;47.508;8.590;2023-04-10T08:09:02;13.10;;;6.53;;
61250;SDS011;47126;47.508;8.590;2023-04-10T08:11:29;12.48;;;6.53;;
61250;SDS011;47126;47.508;8.590;2023-04-10T08:13:57;12.48;;;6.13;;
61250;SDS011;47126;47.508;8.590;2023-04-10T08:16:26;12.82;;;7.20;;
61250;SDS011;47126;47.508;8.590;2023-04-10T08:18:52;10.43;;;5.80;;
61250;SDS011;47126;47.508;8.590;2023-04-10T08:21:20;10.68;;;5.82;;
61250;SDS011;47126;47.508;8.590;2023-04-10T08:23:46;11.90;;;6.00;;
61250;SDS011;47126;47.508;8.590;2023-04-10T08:26:12;10.38;;;5.55;;
61250;SDS011;47126;47.508;8.590;2023-04-10T08:28:38;10.32;;;5.78;;
61250;SDS011;47126;47.508;8.590;2023-04-10T08:31:04;11.43;;;6.10;;
61250;SDS011;47126;47.508;8.590;2023-04-10T08:33:30;9.52;;;5.47;;
61250;SDS011;47126;47.508;8.590;2023-04-10T08:35:56;10.98;;;6.07;;
61250;SDS011;47126;47.508;8.590;2023-04-10T08:38:22;10.07;;;6.00;;
61250;SDS011;47126;47.508;8.590;2023-04-10T08:40:51;10.27;;;5.78;;
61250;SDS011;47126;47.508;8.590;2023-04-10T08:43:17;8.98;;;5.07;;
61250;SDS011;47126;47.508;8.590;2023-04-10T08:45:43;11.10;;;5.93;;
61250;SDS011;47126;47.508;8.590;2023-04-10T08:48:09;9.70;;;5.82;;
61250;SDS011;47126;47.508;8.590;2023-04-10T08:50:37;9.65;;;5.68;;
61250;SDS011;47126;47.508;8.590;2023-04-10T08:53:09;9.03;;;5.97;;
61250;SDS011;47126;47.508;8.590;2023-04-10T08:58:02;10.60;;;6.28;;
61250;SDS011;47126;47.508;8.590;2023-04-10T09:00:28;9.95;;;6.22;;
61250;SDS011;47126;47.508;8.590;2023-04-10T09:02:58;9.05;;;5.90;;
61250;SDS011;47126;47.508;8.590;2023-04-10T09:05:25;9.80;;;5.95;;
61250;SDS011;47126;47.508;8.590;2023-04-10T09:07:52;9.60;;;5.75;;
61250;SDS011;47126;47.508;8.590;2023-04-10T09:10:18;13.43;;;6.30;;
61250;SDS011;47126;47.508;8.590;2023-04-10T09:12:45;9.07;;;5.70;;
61250;SDS011;47126;47.508;8.590;2023-04-10T09:15:11;9.70;;;5.70;;
61250;SDS011;47126;47.508;8.590;2023-04-10T09:17:38;9.68;;;6.28;;
61250;SDS011;47126;47.508;8.590;2023-04-10T09:20:19;10.90;;;5.80;;
61250;SDS011;47126;47.508;8.590;2023-04-10T09:22:46;10.00;;;6.65;;
61250;SDS011;47126;47.508;8.590;2023-04-10T09:25:27;12.13;;;6.18;;
61250;SDS011;47126;47.508;8.590;2023-04-10T09:27:58;10.20;;;6.50;;
61250;SDS011;47126;47.508;8.590;2023-04-10T09:30:35;10.75;;;6.65;;
61250;SDS011;47126;47.508;8.590;2023-04-10T09:33:01;9.23;;;6.20;;
61250;SDS011;47126;47.508;8.590;2023-04-10T09:35:37;9.73;;;6.07;;
61250;SDS011;47126;47.508;8.590;2023-04-10T09:38:12;12.25;;;6.50;;
61250;SDS011;47126;47.508;8.590;2023-04-10T09:40:39;10.02;;;6.03;;
61250;SDS011;47126;47.508;8.590;2023-04-10T09:43:20;10.00;;;6.25;;
61250;SDS011;47126;47.508;8.590;2023-04-10T09:45:47;9.40;;;6.05;;
61250;SDS011;47126;47.508;8.590;2023-04-10T09:48:13;9.27;;;5.82;;
61250;SDS011;47126;47.508;8.590;2023-04-10T09:50:39;11.20;;;6.40;;
61250;SDS011;47126;47.508;8.590;2023-04-10T09:53:09;11.48;;;6.35;;
61250;SDS011;47126;47.508;8.590;2023-04-10T09:55:35;10.77;;;6.90;;
61250;SDS011;47126;47.508;8.590;2023-04-10T09:58:02;10.02;;;6.00;;
61250;SDS011;47126;47.508;8.590;2023-04-10T10:00:28;11.25;;;6.22;;
61250;SDS011;47126;47.508;8.590;2023-04-10T10:02:54;10.65;;;6.20;;
61250;SDS011;47126;47.508;8.590;2023-04-10T10:05:22;10.57;;;6.40;;
61250;SDS011;47126;47.508;8.590;2023-04-10T10:07:54;10.60;;;6.30;;
61250;SDS011;47126;47.508;8.590;2023-04-10T10:10:20;10.98;;;6.40;;
61250;SDS011;47126;47.508;8.590;2023-04-10T10:12:47;10.27;;;5.75;;
61250;SDS011;47126;47.508;8.590;2023-04-10T10:15:27;13.27;;;6.13;;
61250;SDS011;47126;47.508;8.590;2023-04-10T10:20:39;9.18;;;5.97;;
61250;SDS011;47126;47.508;8.590;2023-04-10T10:23:08;9.90;;;6.07;;
61250;SDS011;47126;47.508;8.590;2023-04-10T10:25:34;9.45;;;5.53;;
61250;SDS011;47126;47.508;8.590;2023-04-10T10:28:01;11.07;;;6.45;;
61250;SDS011;47126;47.508;8.590;2023-04-10T10:30:28;9.30;;;5.25;;
61250;SDS011;47126;47.508;8.590;2023-04-10T10:32:56;9.52;;;5.70;;
61250;SDS011;47126;47.508;8.590;2023-04-10T10:35:23;10.77;;;5.53;;
61250;SDS011;47126;47.508;8.590;2023-04-10T10:37:49;10.20;;;5.85;;
61250;SDS011;47126;47.508;8.590;2023-04-10T10:40:19;9.48;;;6.18;;
61250;SDS011;47126;47.508;8.590;2023-04-10T10:43:02;9.98;;;6.05;;
61250;SDS011;47126;47.508;8.590;2023-04-10T10:45:32;8.57;;;5.65;;
61250;SDS011;47126;47.508;8.590;2023-04-10T10:47:59;10.93;;;6.20;;
61250;SDS011;47126;47.508;8.590;2023-04-10T10:50:26;10.57;;;6.40;;
61250;SDS011;47126;47.508;8.590;2023-04-10T10:53:21;10.25;;;5.70;;
61250;SDS011;47126;47.508;8.590;2023-04-10T10:55:55;11.15;;;6.40;;
61250;SDS011;47126;47.508;8.590;2023-04-10T10:58:20;9.20;;;5.68;;
61250;SDS011;47126;47.508;8.590;2023-04-10T11:01:06;9.60;;;6.03;;
61250;SDS011;47126;47.508;8.590;2023-04-10T11:03:32;10.15;;;6.10;;
61250;SDS011;47126;47.508;8.590;2023-04-10T11:06:01;10.20;;;5.97;;
61250;SDS011;47126;47.508;8.590;2023-04-10T11:13:37;9.18;;;5.38;;
61250;SDS011;47126;47.508;8.590;2023-04-10T11:16:04;8.93;;;5.55;;
61250;SDS011;47126;47.508;8.590;2023-04-10T11:21:12;8.82;;;5.22;;
61250;SDS011;47126;47.508;8.590;2023-04-10T11:32:00;9.63;;;5.55;;
61250;SDS011;47126;47.508;8.590;2023-04-10T11:34:27;10.30;;;6.13;;
61250;SDS011;47126;47.508;8.590;2023-04-10T11:36:55;9.63;;;6.20;;
61250;SDS011;47126;47.508;8.590;2023-04-10T11:39:21;12.52;;;6.00;;
61250;SDS011;47126;47.508;8.590;2023-04-10T11:41:50;9.90;;;6.05;;
61250;SDS011;47126;47.508;8.590;2023-04-10T11:44:17;8.77;;;5.75;;
61250;SDS011;47126;47.508;8.590;2023-04-10T11:46:45;9.77;;;6.07;;
61250;SDS011;47126;47.508;8.590;2023-04-10T11:49:11;9.05;;;5.80;;
61250;SDS011;47126;47.508;8.590;2023-04-10T11:51:38;9.68;;;5.78;;
61250;SDS011;47126;47.508;8.590;2023-04-10T11:54:11;8.70;;;5.30;;
61250;SDS011;47126;47.508;8.590;2023-04-10T11:56:39;8.70;;;5.72;;
61250;SDS011;47126;47.508;8.590;2023-04-10T11:59:05;8.57;;;5.38;;
61250;SDS011;47126;47.508;8.590;2023-04-10T12:01:33;10.82;;;5.82;;
61250;SDS011;47126;47.508;8.590;2023-04-10T12:03:59;8.70;;;5.30;;
61250;SDS011;47126;47.508;8.590;2023-04-10T12:06:25;11.18;;;5.20;;
61250;SDS011;47126;47.508;8.590;2023-04-10T12:08:52;8.25;;;5.35;;
61250;SDS011;47126;47.508;8.590;2023-04-10T12:11:27;10.82;;;6.18;;
61250;SDS011;47126;47.508;8.590;2023-04-10T12:13:54;8.20;;;5.50;;
61250;SDS011;47126;47.508;8.590;2023-04-10T12:16:20;9.35;;;5.45;;
61250;SDS011;47126;47.508;8.590;2023-04-10T12:18:47;8.77;;;5.07;;
61250;SDS011;47126;47.508;8.590;2023-04-10T12:21:14;9.48;;;5.75;;
61250;SDS011;47126;47.508;8.590;2023-04-10T12:23:40;8.20;;;5.03;;
61250;SDS011;47126;47.508;8.590;2023-04-10T12:26:11;7.63;;;4.82;;
61250;SDS011;47126;47.508;8.590;2023-04-10T12:28:37;7.90;;;5.18;;
61250;SDS011;47126;47.508;8.590;2023-04-10T12:31:04;7.55;;;4.97;;
61250;SDS011;47126;47.508;8.590;2023-04-10T12:33:30;9.25;;;5.70;;
61250;SDS011;47126;47.508;8.590;2023-04-10T12:35:56;11.98;;;5.95;;
61250;SDS011;47126;47.508;8.590;2023-04-10T12:41:01;9.27;;;5.55;;
61250;SDS011;47126;47.508;8.590;2023-04-10T12:45:57;8.90;;;5.67;;
61250;SDS011;47126;47.508;8.590;2023-04-10T12:48:23;11.15;;;5.20;;
61250;SDS011;47126;47.508;8.590;2023-04-10T12:50:49;8.68;;;4.50;;
61250;SDS011;47126;47.508;8.590;2023-04-10T12:53:15;9.18;;;5.03;;
61250;SDS011;47126;47.508;8.590;2023-04-10T12:55:41;8.75;;;4.85;;
61250;SDS011;47126;47.508;8.590;2023-04-10T12:58:22;10.40;;;5.00;;
61250;SDS011;47126;47.508;8.590;2023-04-10T13:00:52;8.95;;;4.93;;
61250;SDS011;47126;47.508;8.590;2023-04-10T13:03:18;8.15;;;4.22;;
61250;SDS011;47126;47.508;8.590;2023-04-10T13:05:44;7.55;;;4.80;;
61250;SDS011;47126;47.508;8.590;2023-04-10T13:08:10;10.13;;;4.70;;
61250;SDS011;47126;47.508;8.590;2023-04-10T13:10:36;7.00;;;3.70;;
61250;SDS011;47126;47.508;8.590;2023-04-10T13:13:03;5.75;;;3.70;;
61250;SDS011;47126;47.508;8.590;2023-04-10T13:15:30;7.18;;;3.92;;
61250;SDS011;47126;47.508;8.590;2023-04-10T13:17:58;5.97;;;3.95;;
61250;SDS011;47126;47.508;8.590;2023-04-10T13:20:24;6.20;;;4.00;;
61250;SDS011;47126;47.508;8.590;2023-04-10T13:22:50;7.00;;;3.67;;
61250;SDS011;47126;47.508;8.590;2023-04-10T13:25:16;7.18;;;4.10;;
61250;SDS011;47126;47.508;8.590;2023-04-10T13:27:42;6.20;;;4.20;;
61250;SDS011;47126;47.508;8.590;2023-04-10T13:30:08;7.78;;;4.72;;
61250;SDS011;47126;47.508;8.590;2023-04-10T13:32:34;5.78;;;3.70;;
61250;SDS011;47126;47.508;8.590;2023-04-10T13:35:00;5.93;;;3.80;;
61250;SDS011;47126;47.508;8.590;2023-04-10T13:37:26;5.57;;;3.88;;
61250;SDS011;47126;47.508;8.590;2023-04-10T13:39:52;7.30;;;3.55;;
61250;SDS011;47126;47.508;8.590;2023-04-10T13:42:18;6.05;;;3.60;;
61250;SDS011;47126;47.508;8.590;2023-04-10T13:44:44;6.30;;;3.90;;
61250;SDS011;47126;47.508;8.590;2023-04-10T13:47:10;6.40;;;3.45;;
61250;SDS011;47126;47.508;8.590;2023-04-10T13:49:37;6.22;;;3.53;;
61250;SDS011;47126;47.508;8.590;2023-04-10T13:52:03;9.32;;;3.92;;
61250;SDS011;47126;47.508;8.590;2023-04-10T13:54:29;6.32;;;4.00;;
61250;SDS011;47126;47.508;8.590;2023-04-10T13:56:55;7.07;;;3.80;;
61250;SDS011;47126;47.508;8.590;2023-04-10T13:59:23;6.43;;;4.13;;
61250;SDS011;47126;47.508;8.590;2023-04-10T14:01:49;5.15;;;3.20;;
61250;SDS011;47126;47.508;8.590;2023-04-10T14:04:16;7.38;;;3.80;;
61250;SDS011;47126;47.508;8.590;2023-04-10T14:06:42;5.43;;;3.42;;
61250;SDS011;47126;47.508;8.590;2023-04-10T14:09:08;8.73;;;3.72;;
61250;SDS011;47126;47.508;8.590;2023-04-10T14:11:34;7.85;;;4.03;;
61250;SDS011;47126;47.508;8.590;2023-04-10T14:14:00;6.93;;;4.20;;
61250;SDS011;47126;47.508;8.590;2023-04-10T14:16:26;6.60;;;4.13;;
61250;SDS011;47126;47.508;8.590;2023-04-10T14:18:52;6.85;;;3.85;;
61250;SDS011;47126;47.508;8.590;2023-04-10T14:21:18;7.53;;;4.20;;
61250;SDS011;47126;47.508;8.590;2023-04-10T14:23:44;6.82;;;4.20;;
61250;SDS011;47126;47.508;8.590;2023-04-10T14:26:11;5.80;;;3.72;;
61250;SDS011;47126;47.508;8.590;2023-04-10T14:28:37;7.20;;;3.85;;
61250;SDS011;47126;47.508;8.590;2023-04-10T14:31:03;5.20;;;3.65;;
61250;SDS011;47126;47.508;8.590;2023-04-10T14:33:30;6.38;;;3.35;;
61250;SDS011;47126;47.508;8.590;2023-04-10T14:35:56;7.05;;;3.50;;
61250;SDS011;47126;47.508;8.590;2023-04-10T14:38:22;6.30;;;3.65;;
61250;SDS011;47126;47.508;8.590;2023-04-10T14:40:48;6.25;;;3.40;;
61250;SDS011;47126;47.508;8.590;2023-04-10T14:43:14;5.90;;;3.80;;
61250;SDS011;47126;47.508;8.590;2023-04-10T14:45:41;6.57;;;3.80;;
61250;SDS011;47126;47.508;8.590;2023-04-10T14:48:07;6.03;;;3.60;;
61250;SDS011;47126;47.508;8.590;2023-04-10T14:50:33;6.78;;;4.05;;
61250;SDS011;47126;47.508;8.590;2023-04-10T14:52:59;6.43;;;3.40;;
61250;SDS011;47126;47.508;8.590;2023-04-10T14:55:27;7.28;;;3.45;;
61250;SDS011;47126;47.508;8.590;2023-04-10T14:57:53;6.18;;;3.95;;
61250;SDS011;47126;47.508;8.590;2023-04-10T15:00:19;5.05;;;2.95;;
61250;SDS011;47126;47.508;8.590;2023-04-10T15:02:46;6.68;;;3.58;;
61250;SDS011;47126;47.508;8.590;2023-04-10T15:05:12;7.40;;;3.42;;
61250;SDS011;47126;47.508;8.590;2023-04-10T15:07:38;4.90;;;2.95;;
61250;SDS011;47126;47.508;8.590;2023-04-10T15:10:04;5.60;;;3.35;;
61250;SDS011;47126;47.508;8.590;2023-04-10T15:12:30;5.05;;;3.28;;